Time;durP1;ratioP1;P1;durP2;ratioP2;P2;SDS_P1;SDS_P2;PMS_P1;PMS_P2;Temp;Humidity;BMP_temperature;BMP_pressure;BME280_temperature;BME280_humidity;BME280_pressure;Samples;Min_cycle;Max_cycle;Signal;HPM_P1;HPM_P2
2022/01/01 00:00:44;;;;;;;23.85;11.00;;;16.60;95.60;;;;;;5013605;28;20387;-61
2022/01/01 00:03:09;;;;;;;26.00;10.48;;;16.60;95.60;;;;;;5012981;28;20030;-62
2022/01/01 00:05:35;;;;;;;22.52;10.20;;;16.60;95.60;;;;;;5013425;28;20038;-61
2022/01/01 00:08:03;;;;;;;26.55;11.02;;;16.50;95.60;;;;;;5013610;28;20033;-61
2022/01/01 00:10:29;;;;;;;21.13;9.55;;;16.50;95.60;;;;;;5013558;28;20018;-61
2022/01/01 00:12:55;;;;;;;21.95;10.65;;;16.60;95.60;;;;;;5013543;28;20022;-62
2022/01/01 00:15:21;;;;;;;19.95;10.77;;;16.50;95.50;;;;;;5013037;28;20034;-62
2022/01/01 00:17:47;;;;;;;19.35;9.52;;;16.50;95.50;;;;;;5013195;28;20045;-61
2022/01/01 00:20:13;;;;;;;25.08;11.15;;;16.50;95.50;;;;;;5013239;28;20040;-61
2022/01/01 00:22:41;;;;;;;24.55;10.82;;;16.50;95.50;;;;;;5013618;28;20356;-61
2022/01/01 00:25:08;;;;;;;26.73;12.95;;;16.50;95.50;;;;;;5013482;28;20021;-61
2022/01/01 00:27:34;;;;;;;26.38;11.55;;;16.50;95.50;;;;;;5013168;28;20113;-61
2022/01/01 00:29:59;;;;;;;24.25;11.07;;;16.50;95.50;;;;;;5013305;28;20104;-62
2022/01/01 00:32:25;;;;;;;22.08;11.38;;;16.40;95.50;;;;;;5013045;28;20105;-61
2022/01/01 00:34:51;;;;;;;17.92;9.80;;;16.40;95.40;;;;;;5012086;28;20049;-62
2022/01/01 00:37:17;;;;;;;22.48;11.90;;;16.40;95.50;;;;;;5013333;28;20049;-61
2022/01/01 00:39:43;;;;;;;16.63;9.90;;;16.40;95.50;;;;;;5013063;28;20051;-67
2022/01/01 00:42:09;;;;;;;19.73;10.57;;;16.40;95.50;;;;;;5013253;28;20176;-66
2022/01/01 00:44:35;;;;;;;21.63;11.85;;;16.40;95.50;;;;;;5012177;28;20079;-65
2022/01/01 00:47:01;;;;;;;20.77;11.20;;;16.40;95.50;;;;;;5012797;28;20026;-65
2022/01/01 00:49:26;;;;;;;24.17;12.13;;;16.40;95.40;;;;;;5013234;28;20026;-66
2022/01/01 00:51:52;;;;;;;23.92;12.52;;;16.30;95.40;;;;;;5013226;28;20029;-67
2022/01/01 00:54:18;;;;;;;20.55;12.10;;;16.30;95.40;;;;;;5013349;28;20479;-66
2022/01/01 00:56:43;;;;;;;19.80;12.30;;;16.40;95.40;;;;;;5013112;28;20037;-66
2022/01/01 00:59:09;;;;;;;16.95;11.30;;;16.30;95.40;;;;;;5013012;28;20025;-67
2022/01/01 01:01:36;;;;;;;16.33;10.30;;;16.30;95.40;;;;;;5012832;28;20439;-67
2022/01/01 01:04:02;;;;;;;16.63;9.20;;;16.30;95.50;;;;;;5013055;28;20428;-66
2022/01/01 01:06:28;;;;;;;14.52;9.27;;;16.30;95.50;;;;;;5012909;28;20029;-66
2022/01/01 01:08:57;;;;;;;16.33;10.13;;;16.30;95.60;;;;;;5012951;28;20076;-66
2022/01/01 01:11:23;;;;;;;13.80;9.55;;;16.30;95.50;;;;;;5012850;28;20037;-67
2022/01/01 01:13:57;;;;;;;18.60;9.18;;;16.30;95.60;;;;;;5012952;28;20026;-67
2022/01/01 01:16:23;;;;;;;17.35;9.48;;;16.30;95.60;;;;;;5016016;28;20121;-66
2022/01/01 01:18:49;;;;;;;17.58;9.73;;;16.30;95.70;;;;;;5016596;28;20121;-67
2022/01/01 01:21:15;;;;;;;15.43;9.07;;;16.20;95.70;;;;;;5016530;28;20026;-67
2022/01/01 01:23:42;;;;;;;15.95;9.13;;;16.30;95.70;;;;;;5016710;28;20026;-67
2022/01/01 01:26:08;;;;;;;15.85;8.75;;;16.30;95.70;;;;;;5016652;28;20014;-61
2022/01/01 01:28:34;;;;;;;14.70;9.05;;;16.30;95.70;;;;;;5016595;28;20045;-66
2022/01/01 01:31:00;;;;;;;12.93;8.85;;;16.20;95.60;;;;;;5015869;28;20017;-62
2022/01/01 01:33:26;;;;;;;12.23;7.88;;;16.20;95.60;;;;;;5016576;28;20026;-62
2022/01/01 01:35:52;;;;;;;14.85;8.75;;;16.20;95.60;;;;;;5016638;28;20032;-66
2022/01/01 01:38:18;;;;;;;14.13;8.35;;;16.20;95.60;;;;;;5016277;28;20109;-66
2022/01/01 01:40:43;;;;;;;15.50;8.98;;;16.20;95.60;;;;;;5016284;28;20053;-66
2022/01/01 01:43:11;;;;;;;15.48;8.10;;;16.20;95.60;;;;;;5016351;28;20051;-66
2022/01/01 01:45:37;;;;;;;16.92;8.52;;;16.30;95.80;;;;;;5014821;28;20053;-66
2022/01/01 01:48:03;;;;;;;12.85;8.07;;;16.20;95.50;;;;;;5015846;28;20299;-67
2022/01/01 01:50:30;;;;;;;14.40;8.45;;;16.20;95.50;;;;;;5034891;28;20060;-66
2022/01/01 01:52:58;;;;;;;14.25;7.93;;;16.20;95.50;;;;;;5035197;28;20045;-67
2022/01/01 01:55:27;;;;;;;11.75;7.80;;;16.20;95.50;;;;;;5017527;28;20053;-66
2022/01/01 01:57:53;;;;;;;15.57;8.57;;;16.20;95.50;;;;;;5035404;28;20041;-67
2022/01/01 02:03:09;;;;;;;14.88;8.98;;;16.10;95.50;;;;;;5035482;28;20045;-66
2022/01/01 02:05:38;;;;;;;16.33;9.38;;;16.10;95.50;;;;;;5035408;28;20032;-67
2022/01/01 02:08:05;;;;;;;18.77;9.00;;;16.20;95.50;;;;;;5017369;28;20029;-67
2022/01/01 02:10:32;;;;;;;13.90;7.65;;;16.20;95.50;;;;;;5035186;28;20018;-67
2022/01/01 02:12:58;;;;;;;13.10;7.53;;;16.10;95.50;;;;;;5034796;28;20041;-67
2022/01/01 02:15:59;;;;;;;13.52;7.35;;;16.20;95.40;;;;;;5034971;28;20455;-66
2022/01/01 02:18:24;;;;;;;14.20;6.85;;;16.20;95.40;;;;;;5034948;28;20034;-67
2022/01/01 02:20:50;;;;;;;15.23;7.97;;;16.20;95.40;;;;;;5035006;28;20056;-65
2022/01/01 02:23:22;;;;;;;16.92;8.18;;;16.10;95.40;;;;;;5035313;28;20026;-65
2022/01/01 02:25:52;;;;;;;20.20;9.95;;;16.10;95.30;;;;;;5034793;28;20044;-67
2022/01/01 02:28:18;;;;;;;12.43;7.32;;;16.10;95.20;;;;;;5034528;28;20078;-67
2022/01/01 02:30:44;;;;;;;12.00;6.95;;;16.10;95.20;;;;;;5035161;28;20029;-67
2022/01/01 02:33:10;;;;;;;14.65;7.90;;;16.10;95.10;;;;;;5034700;28;20033;-67
2022/01/01 02:35:35;;;;;;;11.30;6.95;;;16.10;95.10;;;;;;5035183;28;20036;-67
2022/01/01 02:38:01;;;;;;;12.93;6.68;;;16.10;95.00;;;;;;5034853;28;20466;-67
2022/01/01 02:40:27;;;;;;;15.60;7.00;;;16.10;95.00;;;;;;5034685;28;20026;-65
2022/01/01 02:42:53;;;;;;;12.32;7.00;;;16.00;95.00;;;;;;5034608;28;20018;-66
2022/01/01 02:45:20;;;;;;;12.20;7.03;;;16.00;95.00;;;;;;5034897;28;20026;-67
2022/01/01 02:47:46;;;;;;;14.10;7.25;;;16.00;95.30;;;;;;5034697;28;20037;-67
2022/01/01 02:50:12;;;;;;;14.70;7.22;;;16.00;95.00;;;;;;5034505;28;20026;-66
2022/01/01 02:52:38;;;;;;;13.13;7.07;;;16.00;95.10;;;;;;5034797;28;20451;-66
2022/01/01 02:55:05;;;;;;;14.88;7.07;;;16.00;95.00;;;;;;5034549;28;20108;-66
2022/01/01 02:57:31;;;;;;;15.38;7.00;;;16.10;95.10;;;;;;5034279;28;20033;-66
2022/01/01 02:59:57;;;;;;;13.98;6.50;;;16.00;95.10;;;;;;5034361;28;20030;-65
2022/01/01 03:02:22;;;;;;;13.35;6.40;;;16.00;95.10;;;;;;5016783;28;20383;-67
2022/01/01 03:04:48;;;;;;;12.90;7.03;;;16.00;95.10;;;;;;5034395;28;20099;-67
2022/01/01 03:07:14;;;;;;;14.07;6.28;;;16.00;95.10;;;;;;5034238;28;20391;-67
2022/01/01 03:09:40;;;;;;;13.30;6.78;;;16.00;95.10;;;;;;5034256;28;20037;-66
2022/01/01 03:12:08;;;;;;;16.23;6.63;;;16.00;95.10;;;;;;5033794;28;20036;-66
2022/01/01 03:14:34;;;;;;;12.48;6.35;;;16.00;95.10;;;;;;5033968;28;20056;-67
2022/01/01 03:17:00;;;;;;;13.48;6.10;;;16.00;95.10;;;;;;5034023;28;20037;-67
2022/01/01 03:19:25;;;;;;;10.65;6.25;;;16.00;95.10;;;;;;5034374;28;20025;-67
2022/01/01 03:21:51;;;;;;;16.52;6.47;;;16.00;95.10;;;;;;5034524;28;20026;-67
2022/01/01 03:24:17;;;;;;;13.45;6.30;;;16.00;95.00;;;;;;5034456;28;20092;-67
2022/01/01 03:26:43;;;;;;;13.13;6.35;;;16.00;95.00;;;;;;5034176;28;20037;-66
2022/01/01 03:29:08;;;;;;;11.43;6.18;;;16.00;95.00;;;;;;5033843;28;20028;-65
2022/01/01 03:31:34;;;;;;;14.00;6.15;;;16.00;95.00;;;;;;5033847;28;20083;-65
2022/01/01 03:34:00;;;;;;;11.88;6.70;;;16.00;94.90;;;;;;5033830;28;20095;-67
2022/01/01 03:36:26;;;;;;;12.43;6.72;;;16.00;94.90;;;;;;5033480;28;20056;-65
2022/01/01 03:38:52;;;;;;;14.25;6.72;;;16.00;94.80;;;;;;5033135;28;20022;-66
2022/01/01 03:41:18;;;;;;;11.30;5.90;;;16.00;94.80;;;;;;5033511;28;20029;-67
2022/01/01 03:43:44;;;;;;;17.50;6.35;;;16.00;94.80;;;;;;5033724;28;20064;-67
2022/01/01 03:46:10;;;;;;;13.02;6.25;;;16.00;94.80;;;;;;5033552;28;20164;-66
2022/01/01 03:48:36;;;;;;;12.80;7.15;;;16.00;94.80;;;;;;5033285;28;20478;-61
2022/01/01 03:51:02;;;;;;;12.70;6.22;;;15.90;94.70;;;;;;5033567;28;20403;-61
2022/01/01 03:53:27;;;;;;;10.65;6.60;;;15.90;94.70;;;;;;5033650;28;20013;-61
2022/01/01 03:55:54;;;;;;;13.95;5.65;;;15.90;94.70;;;;;;5033053;28;20112;-61
2022/01/01 03:58:20;;;;;;;10.48;6.07;;;15.90;94.70;;;;;;5033383;28;20027;-62
2022/01/01 04:00:45;;;;;;;9.45;5.00;;;15.90;94.70;;;;;;5033389;28;20026;-63
2022/01/01 04:03:13;;;;;;;12.52;5.80;;;15.90;94.70;;;;;;5033228;28;20025;-62
2022/01/01 04:05:40;;;;;;;11.65;5.90;;;15.80;94.70;;;;;;5033422;28;20025;-61
2022/01/01 04:08:07;;;;;;;10.80;5.25;;;15.80;94.70;;;;;;5033350;28;20025;-60
2022/01/01 04:10:34;;;;;;;14.77;5.47;;;15.80;94.70;;;;;;5033064;28;20068;-61
2022/01/01 04:13:00;;;;;;;11.60;5.63;;;15.80;94.70;;;;;;5033294;28;20026;-63
2022/01/01 04:15:27;;;;;;;8.52;5.25;;;15.80;94.70;;;;;;5032978;28;20065;-61
2022/01/01 04:17:58;;;;;;;8.95;4.97;;;15.80;94.70;;;;;;5033300;28;20109;-62
2022/01/01 04:20:25;;;;;;;9.85;5.07;;;15.80;94.70;;;;;;5033073;28;20108;-62
2022/01/01 04:22:52;;;;;;;10.50;6.13;;;15.80;94.70;;;;;;5033247;28;20022;-61
2022/01/01 04:25:18;;;;;;;8.88;5.32;;;15.80;94.70;;;;;;5032803;28;20083;-62
2022/01/01 04:27:44;;;;;;;11.80;5.50;;;15.70;94.70;;;;;;5033057;28;20467;-62
2022/01/01 04:30:10;;;;;;;10.90;6.70;;;15.70;94.70;;;;;;5033074;28;20052;-62
2022/01/01 04:32:35;;;;;;;10.55;5.18;;;15.70;94.70;;;;;;5033214;28;20013;-62
2022/01/01 04:35:01;;;;;;;9.43;5.15;;;15.70;94.70;;;;;;5033078;28;20032;-61
2022/01/01 04:37:26;;;;;;;11.60;5.38;;;15.70;94.60;;;;;;5032842;28;20112;-62
2022/01/01 04:39:58;;;;;;;14.05;5.13;;;15.60;94.60;;;;;;5032648;28;20029;-61
2022/01/01 04:42:24;;;;;;;11.98;5.68;;;15.60;94.60;;;;;;5032934;28;20130;-62
2022/01/01 04:44:49;;;;;;;12.15;5.43;;;15.70;94.60;;;;;;5033002;28;20094;-62
2022/01/01 04:47:15;;;;;;;13.07;5.38;;;15.60;94.50;;;;;;5032977;28;20030;-61
2022/01/01 04:49:41;;;;;;;11.25;5.80;;;15.60;94.60;;;;;;5035793;28;20096;-61
2022/01/01 04:52:06;;;;;;;7.70;4.80;;;15.60;94.60;;;;;;5036870;28;20025;-62
2022/01/01 04:54:34;;;;;;;13.85;5.43;;;15.60;94.60;;;;;;5036632;28;20025;-61
2022/01/01 04:56:59;;;;;;;10.13;5.50;;;15.50;94.60;;;;;;5036676;28;20102;-61
2022/01/01 04:59:25;;;;;;;11.48;5.05;;;15.50;94.70;;;;;;5037218;28;20447;-62
2022/01/01 05:01:51;;;;;;;9.45;5.18;;;15.50;94.70;;;;;;5036726;28;20534;-62
2022/01/01 05:04:16;;;;;;;9.50;5.20;;;15.50;94.70;;;;;;5037000;28;20021;-62
2022/01/01 05:06:42;;;;;;;10.65;5.60;;;15.60;94.80;;;;;;5036369;28;20026;-62
2022/01/01 05:09:08;;;;;;;8.68;5.55;;;15.50;94.80;;;;;;5037376;28;20467;-61
2022/01/01 05:11:34;;;;;;;11.18;5.65;;;15.50;94.90;;;;;;5036660;28;20029;-62
2022/01/01 05:14:00;;;;;;;10.85;5.65;;;15.50;94.90;;;;;;5036361;28;20044;-61
2022/01/01 05:16:26;;;;;;;10.40;6.18;;;15.50;94.90;;;;;;5036124;28;20148;-62
2022/01/01 05:18:51;;;;;;;11.02;5.70;;;15.50;94.90;;;;;;5036336;28;20108;-62
2022/01/01 05:21:17;;;;;;;9.23;6.22;;;15.50;94.90;;;;;;5036010;28;20060;-63
2022/01/01 05:23:43;;;;;;;11.07;5.90;;;15.60;94.90;;;;;;5036216;28;20025;-62
2022/01/01 05:26:08;;;;;;;11.52;6.35;;;15.50;94.90;;;;;;5036447;28;20029;-61
2022/01/01 05:28:34;;;;;;;11.70;5.93;;;15.50;94.90;;;;;;5036105;28;20026;-61
2022/01/01 05:30:59;;;;;;;10.82;6.57;;;15.50;95.00;;;;;;5036268;28;20033;-62
2022/01/01 05:33:25;;;;;;;8.93;6.22;;;15.60;95.00;;;;;;5036201;28;20101;-62
2022/01/01 05:35:50;;;;;;;10.32;6.00;;;15.50;94.90;;;;;;5035783;28;20030;-61
2022/01/01 05:38:17;;;;;;;13.45;6.70;;;15.50;95.00;;;;;;5035788;28;20370;-62
2022/01/01 05:40:43;;;;;;;10.75;6.95;;;15.50;95.00;;;;;;5036069;28;20013;-61
2022/01/01 05:43:13;;;;;;;12.95;6.85;;;15.50;94.90;;;;;;5035933;28;20052;-61
2022/01/01 05:45:40;;;;;;;13.95;7.05;;;15.50;94.90;;;;;;5036118;28;20128;-63
2022/01/01 05:48:05;;;;;;;13.07;7.25;;;15.50;95.00;;;;;;5035812;28;20037;-63
2022/01/01 05:50:31;;;;;;;12.10;6.78;;;15.50;94.90;;;;;;5035450;28;20080;-63
2022/01/01 05:52:56;;;;;;;13.15;7.43;;;15.50;95.00;;;;;;5035856;28;20078;-63
2022/01/01 05:55:22;;;;;;;12.32;7.13;;;15.50;94.90;;;;;;5035911;28;20356;-62
2022/01/01 05:57:47;;;;;;;14.15;6.82;;;15.50;94.90;;;;;;5035538;28;20037;-61
2022/01/01 06:00:14;;;;;;;13.35;7.72;;;15.50;95.00;;;;;;5032463;28;20039;-61
2022/01/01 06:02:40;;;;;;;11.63;7.03;;;15.50;95.00;;;;;;5016402;28;20033;-60
2022/01/01 06:05:06;;;;;;;11.48;7.57;;;15.50;94.90;;;;;;5014484;28;20048;-61
2022/01/01 06:07:32;;;;;;;13.65;7.57;;;15.50;95.00;;;;;;5014006;28;20032;-61
2022/01/01 06:09:57;;;;;;;15.55;8.73;;;15.50;94.90;;;;;;5014930;28;20026;-62
2022/01/01 06:12:23;;;;;;;13.55;7.78;;;15.50;94.90;;;;;;5015549;28;20475;-62
2022/01/01 06:14:48;;;;;;;14.00;8.55;;;15.50;94.90;;;;;;5015384;28;20034;-63
2022/01/01 06:17:14;;;;;;;12.82;7.97;;;15.50;94.90;;;;;;5016614;28;20533;-62
2022/01/01 06:19:40;;;;;;;15.73;8.48;;;15.50;94.90;;;;;;5016275;28;20057;-63
2022/01/01 06:22:05;;;;;;;14.23;8.98;;;15.50;94.80;;;;;;5015683;28;20030;-61
2022/01/01 06:24:31;;;;;;;13.10;8.70;;;15.50;94.80;;;;;;5015188;28;20360;-62
2022/01/01 06:26:56;;;;;;;11.57;8.68;;;15.50;94.80;;;;;;5015307;28;20030;-62
2022/01/01 06:29:22;;;;;;;20.08;9.73;;;15.40;94.80;;;;;;5015067;28;20041;-62
2022/01/01 06:31:47;;;;;;;16.88;9.70;;;15.40;94.80;;;;;;5015822;28;20057;-62
2022/01/01 06:34:13;;;;;;;15.30;9.52;;;15.40;94.70;;;;;;5014918;28;20109;-64
2022/01/01 06:36:39;;;;;;;20.30;9.80;;;15.40;94.80;;;;;;5015013;28;20178;-62
2022/01/01 06:39:04;;;;;;;14.98;9.85;;;15.40;94.70;;;;;;5015152;28;20026;-62
2022/01/01 06:41:30;;;;;;;16.48;9.93;;;15.40;94.70;;;;;;4997395;28;20038;-62
2022/01/01 06:43:56;;;;;;;15.43;9.95;;;15.40;94.70;;;;;;5015235;28;20046;-62
2022/01/01 06:46:21;;;;;;;15.23;10.63;;;15.40;94.60;;;;;;5015311;28;20391;-63
2022/01/01 06:48:47;;;;;;;14.13;11.38;;;15.40;94.60;;;;;;5014526;28;20115;-61
2022/01/01 06:51:13;;;;;;;16.45;11.52;;;15.40;94.60;;;;;;5014898;28;20033;-61
2022/01/01 06:53:38;;;;;;;13.48;10.80;;;15.40;94.70;;;;;;5014860;28;20040;-62
2022/01/01 06:56:05;;;;;;;16.60;11.93;;;15.40;94.60;;;;;;5014969;28;20105;-61
2022/01/01 06:58:35;;;;;;;18.05;12.85;;;15.40;94.70;;;;;;5014587;28;20413;-61
2022/01/01 07:01:01;;;;;;;17.75;14.00;;;15.40;94.60;;;;;;5014815;28;20092;-61
2022/01/01 07:03:26;;;;;;;18.77;13.63;;;15.30;94.70;;;;;;5014453;28;20034;-61
2022/01/01 07:05:52;;;;;;;15.38;13.77;;;15.30;94.70;;;;;;5014662;28;20024;-62
2022/01/01 07:08:18;;;;;;;19.55;14.15;;;15.30;94.70;;;;;;5014515;28;20511;-60
2022/01/01 07:10:45;;;;;;;19.90;16.20;;;15.30;94.80;;;;;;5014395;28;20069;-62
2022/01/01 07:13:12;;;;;;;20.30;16.55;;;15.30;94.80;;;;;;5014690;28;20049;-61
2022/01/01 07:15:38;;;;;;;21.63;16.88;;;15.30;94.80;;;;;;5014348;28;20402;-62
2022/01/01 07:18:04;;;;;;;21.17;16.58;;;15.30;94.90;;;;;;4996653;28;20042;-61
2022/01/01 07:20:29;;;;;;;22.60;17.33;;;15.30;94.90;;;;;;5014341;28;20533;-62
2022/01/01 07:22:55;;;;;;;18.67;16.58;;;15.30;94.90;;;;;;5014236;28;20026;-62
2022/01/01 07:25:21;;;;;;;22.35;16.58;;;15.30;95.00;;;;;;5014383;28;20692;-62
2022/01/01 07:27:46;;;;;;;19.20;15.18;;;15.20;95.00;;;;;;5014343;28;20022;-62
2022/01/01 07:30:12;;;;;;;20.88;15.98;;;15.30;95.10;;;;;;5014199;28;20360;-62
2022/01/01 07:32:40;;;;;;;21.10;16.95;;;15.20;95.10;;;;;;5013987;28;20096;-61
2022/01/01 07:35:06;;;;;;;22.85;17.83;;;15.20;95.10;;;;;;5015016;28;20026;-62
2022/01/01 07:37:32;;;;;;;22.30;18.70;;;15.20;95.20;;;;;;5014043;28;20125;-61
2022/01/01 07:39:57;;;;;;;22.85;18.02;;;15.20;95.20;;;;;;5014171;28;20049;-61
2022/01/01 07:42:23;;;;;;;22.20;18.13;;;15.20;95.30;;;;;;5014164;28;20034;-62
2022/01/01 07:44:48;;;;;;;23.02;18.58;;;15.20;95.30;;;;;;5014323;23;20044;-61
2022/01/01 07:47:14;;;;;;;22.40;18.75;;;15.20;95.30;;;;;;5032645;28;20140;-61
2022/01/01 07:49:42;;;;;;;24.88;18.90;;;15.20;95.40;;;;;;5033582;28;20368;-61
2022/01/01 07:52:08;;;;;;;21.95;17.35;;;15.10;95.40;;;;;;5033587;28;20443;-61
2022/01/01 07:54:33;;;;;;;20.70;18.13;;;15.20;95.50;;;;;;5032427;28;20056;-62
2022/01/01 07:56:59;;;;;;;22.15;18.77;;;15.20;95.50;;;;;;5033493;28;20038;-62
2022/01/01 07:59:24;;;;;;;22.73;19.42;;;15.20;95.50;;;;;;5033442;28;20432;-62
2022/01/01 08:01:50;;;;;;;21.05;17.73;;;15.20;95.60;;;;;;5032977;28;20022;-62
2022/01/01 08:04:16;;;;;;;29.00;20.30;;;15.20;95.50;;;;;;5033622;28;20056;-61
2022/01/01 08:06:41;;;;;;;25.90;20.50;;;15.20;95.60;;;;;;5033320;28;20032;-62
2022/01/01 08:09:07;;;;;;;25.33;19.70;;;15.20;95.60;;;;;;5033302;28;20083;-62
2022/01/01 08:11:32;;;;;;;22.13;18.27;;;15.20;95.70;;;;;;5033149;28;20021;-62
2022/01/01 08:13:58;;;;;;;22.95;19.88;;;15.20;95.60;;;;;;5026854;22;20100;-62
2022/01/01 08:16:24;;;;;;;20.77;17.80;;;15.20;95.70;;;;;;5013161;28;20431;-62
2022/01/01 08:18:49;;;;;;;25.42;20.73;;;15.20;95.70;;;;;;5013545;28;20041;-62
2022/01/01 08:21:15;;;;;;;23.80;20.27;;;15.20;95.80;;;;;;5013506;28;20037;-62
2022/01/01 08:23:40;;;;;;;21.98;17.80;;;15.20;95.70;;;;;;5012589;28;20041;-61
2022/01/01 08:26:06;;;;;;;23.83;18.77;;;15.10;95.80;;;;;;5009882;28;20026;-62
2022/01/01 08:28:32;;;;;;;25.77;19.13;;;15.20;95.80;;;;;;5011444;28;20029;-61
2022/01/01 08:30:57;;;;;;;27.20;20.45;;;15.20;95.90;;;;;;5012856;28;20391;-63
2022/01/01 08:33:23;;;;;;;25.35;19.13;;;15.20;95.90;;;;;;5013700;28;20025;-62
2022/01/01 08:35:49;;;;;;;12.48;9.85;;;15.20;95.90;;;;;;5030230;28;20406;-65
2022/01/01 08:38:15;;;;;;;13.27;10.10;;;15.20;95.70;;;;;;5030707;28;20026;-64
2022/01/01 08:40:41;;;;;;;13.00;9.55;;;15.30;95.50;;;;;;5031238;28;20542;-65
2022/01/01 08:43:07;;;;;;;12.15;9.15;;;15.30;95.40;;;;;;5032515;28;20034;-65
2022/01/01 08:45:34;;;;;;;13.73;10.52;;;15.40;95.30;;;;;;5032534;28;20109;-67
2022/01/01 08:48:00;;;;;;;14.50;9.10;;;15.40;95.20;;;;;;5032861;28;20022;-65
2022/01/01 08:50:26;;;;;;;18.98;14.27;;;15.50;95.20;;;;;;5021255;28;20030;-65
2022/01/01 08:52:51;;;;;;;19.67;14.23;;;15.50;95.30;;;;;;5028676;28;20390;-67
2022/01/01 08:55:17;;;;;;;20.35;14.45;;;15.50;95.30;;;;;;5014694;28;20022;-66
2022/01/01 08:57:43;;;;;;;17.67;13.40;;;15.50;95.30;;;;;;5012455;28;20514;-67
2022/01/01 09:00:10;;;;;;;19.27;13.57;;;15.50;95.30;;;;;;5020751;28;20071;-67
2022/01/01 09:02:36;;;;;;;19.30;13.15;;;15.50;95.30;;;;;;5015756;28;20037;-66
2022/01/01 09:05:03;;;;;;;17.98;12.57;;;15.50;95.30;;;;;;5027829;28;20033;-67
2022/01/01 09:07:29;;;;;;;17.65;14.05;;;15.60;95.30;;;;;;5017507;28;20033;-67
2022/01/01 09:09:56;;;;;;;15.80;13.05;;;15.60;95.30;;;;;;5021970;28;20021;-65
2022/01/01 09:12:22;;;;;;;19.17;14.43;;;15.60;95.30;;;;;;5024192;28;20063;-66
2022/01/01 09:14:47;;;;;;;19.02;13.50;;;15.60;95.30;;;;;;5014149;28;20092;-64
2022/01/01 09:17:13;;;;;;;16.20;11.75;;;15.60;95.30;;;;;;5027908;28;20049;-65
2022/01/01 09:19:38;;;;;;;13.02;11.00;;;15.60;95.20;;;;;;5014275;28;20028;-65
2022/01/01 09:22:04;;;;;;;13.85;10.60;;;15.70;95.30;;;;;;5013845;28;20034;-64
2022/01/01 09:24:30;;;;;;;12.07;10.23;;;15.70;95.30;;;;;;5007915;28;20640;-66
2022/01/01 09:26:56;;;;;;;11.52;9.05;;;15.70;95.30;;;;;;5011874;28;20033;-65
2022/01/01 09:29:21;;;;;;;11.32;8.40;;;15.80;95.20;;;;;;5013652;28;20026;-65
2022/01/01 09:31:47;;;;;;;11.57;7.63;;;15.80;95.30;;;;;;5013213;28;20049;-72
2022/01/01 09:34:13;;;;;;;11.65;7.45;;;15.80;95.30;;;;;;5008213;28;20030;-73
2022/01/01 09:36:38;;;;;;;10.88;7.25;;;15.80;95.30;;;;;;5014725;28;20037;-73
2022/01/01 09:39:05;;;;;;;24.70;7.43;;;15.80;95.40;;;;;;5014806;28;20025;-68
2022/01/01 09:41:31;;;;;;;11.55;7.18;;;15.80;95.40;;;;;;5014976;28;20025;-72
2022/01/01 09:43:58;;;;;;;10.40;6.38;;;15.90;95.40;;;;;;5019697;28;20053;-72
2022/01/01 09:46:27;;;;;;;9.07;6.05;;;15.90;95.40;;;;;;5010980;28;20022;-69
2022/01/01 09:48:54;;;;;;;8.68;6.43;;;15.90;95.50;;;;;;5014114;28;20398;-66
2022/01/01 09:51:20;;;;;;;7.50;5.03;;;15.90;95.40;;;;;;5013470;28;20018;-70
2022/01/01 09:53:47;;;;;;;10.40;5.50;;;15.90;95.40;;;;;;5015698;28;20108;-72
2022/01/01 09:56:13;;;;;;;8.50;6.05;;;15.90;95.40;;;;;;5016211;28;20037;-71
2022/01/01 09:58:39;;;;;;;6.63;5.10;;;15.90;95.50;;;;;;5016526;28;20028;-72
2022/01/01 10:01:07;;;;;;;10.00;5.78;;;16.00;95.40;;;;;;5018533;28;20018;-68
2022/01/01 10:03:45;;;;;;;10.45;8.18;;;15.90;95.40;;;;;;5008487;28;20451;-73
2022/01/01 10:06:14;;;;;;;9.18;5.30;;;15.90;95.10;;;;;;5010776;28;20076;-67
2022/01/01 10:08:41;;;;;;;8.98;5.38;;;16.00;95.30;;;;;;5015627;28;20533;-66
2022/01/01 10:11:08;;;;;;;5.93;4.47;;;16.00;95.20;;;;;;5015689;28;20017;-70
2022/01/01 10:13:39;;;;;;;8.05;4.22;;;16.00;95.20;;;;;;5015374;28;20034;-67
2022/01/01 10:16:07;;;;;;;8.30;4.90;;;16.00;95.10;;;;;;5015478;28;20108;-70
2022/01/01 10:18:41;;;;;;;8.60;4.78;;;16.00;95.20;;;;;;5015298;28;20471;-65
2022/01/01 10:21:13;;;;;;;7.72;4.60;;;16.00;95.20;;;;;;5015000;28;20010;-66
2022/01/01 10:23:42;;;;;;;7.93;4.33;;;16.00;95.20;;;;;;5015003;28;20033;-66
2022/01/01 10:29:16;;;;;;;9.00;4.80;;;16.10;95.10;;;;;;5008079;28;20138;-71
2022/01/01 10:31:55;;;;;;;9.45;4.13;;;16.00;95.20;;;;;;5015395;28;20061;-72
2022/01/01 10:34:24;;;;;;;6.32;3.63;;;16.10;95.10;;;;;;5015286;28;20022;-72
2022/01/01 10:36:52;;;;;;;7.65;4.35;;;16.10;95.20;;;;;;5014589;28;20113;-74
2022/01/01 10:39:18;;;;;;;11.63;3.95;;;16.10;95.10;;;;;;5013893;28;20022;-67
2022/01/01 10:41:56;;;;;;;13.25;4.50;;;16.20;95.10;;;;;;5014935;28;20034;-71
2022/01/01 10:44:26;;;;;;;10.57;4.18;;;16.20;95.00;;;;;;5013169;28;20030;-76
2022/01/01 10:46:52;;;;;;;7.40;3.97;;;16.20;95.10;;;;;;5014242;28;20364;-74
2022/01/01 10:52:15;;;;;;;8.40;5.55;;;16.20;95.10;;;;;;5015114;28;20096;-75
2022/01/01 10:54:49;;;;;;;12.02;4.15;;;16.20;95.10;;;;;;5014686;28;20423;-78
2022/01/01 10:57:23;;;;;;;8.77;3.65;;;16.20;95.00;;;;;;5014238;28;20096;-77
2022/01/01 10:59:50;;;;;;;6.80;3.10;;;16.30;94.90;;;;;;5013836;28;20084;-68
2022/01/01 11:02:16;;;;;;;8.05;3.03;;;16.20;94.80;;;;;;5014037;28;20046;-75
2022/01/01 11:04:42;;;;;;;5.85;2.45;;;16.30;94.80;;;;;;5014747;28;20064;-76
2022/01/01 11:07:08;;;;;;;5.22;3.10;;;16.30;94.80;;;;;;5013103;28;20080;-78
2022/01/01 11:09:34;;;;;;;5.07;2.80;;;16.20;94.80;;;;;;5013781;28;20041;-76
2022/01/01 11:12:03;;;;;;;5.85;2.45;;;16.20;94.80;;;;;;5014659;28;20018;-78
2022/01/01 11:14:32;;;;;;;3.83;2.50;;;16.30;94.80;;;;;;5014633;28;20066;-78
2022/01/01 11:17:01;;;;;;;5.35;3.03;;;16.30;94.70;;;;;;5012895;28;20035;-77
2022/01/01 11:19:27;;;;;;;5.93;2.67;;;16.40;94.70;;;;;;5012800;28;20029;-77
2022/01/01 11:21:53;;;;;;;5.18;2.97;;;16.40;94.70;;;;;;5015936;28;20025;-77
2022/01/01 11:24:21;;;;;;;7.95;2.92;;;16.50;94.70;;;;;;5016107;28;20036;-66
2022/01/01 11:26:49;;;;;;;8.88;2.58;;;16.60;94.60;;;;;;5011975;28;20156;-72
2022/01/01 11:29:15;;;;;;;8.05;2.72;;;16.60;94.60;;;;;;5014055;28;20022;-71
2022/01/01 11:31:44;;;;;;;8.38;2.58;;;16.60;94.70;;;;;;5012996;28;20109;-81
2022/01/01 11:34:13;;;;;;;8.43;3.10;;;16.70;94.60;;;;;;5013449;28;20022;-75
2022/01/01 11:36:38;;;;;;;5.95;2.72;;;16.60;94.80;;;;;;5013152;28;20622;-73
2022/01/01 11:39:12;;;;;;;9.25;2.83;;;16.60;95.10;;;;;;5013603;28;20104;-72
2022/01/01 11:41:41;;;;;;;11.60;3.03;;;16.70;95.10;;;;;;5010688;28;20056;-74
2022/01/01 11:44:28;;;;;;;9.07;3.08;;;16.70;95.10;;;;;;5013024;28;20104;-73
2022/01/01 11:46:59;;;;;;;6.60;2.55;;;16.80;94.80;;;;;;5013592;28;20030;-72
2022/01/01 11:49:26;;;;;;;4.55;2.55;;;16.70;95.10;;;;;;5009942;28;20038;-73
2022/01/01 11:51:53;;;;;;;4.40;3.10;;;16.80;95.00;;;;;;5013151;28;20050;-73
2022/01/01 11:54:35;;;;;;;3.78;2.00;;;16.80;95.00;;;;;;5011749;28;20061;-74
2022/01/01 11:57:09;;;;;;;5.72;2.40;;;16.80;95.00;;;;;;5013792;28;20034;-73
2022/01/01 11:59:37;;;;;;;5.82;2.60;;;16.80;94.90;;;;;;5011062;28;20475;-73
2022/01/01 12:02:05;;;;;;;5.53;2.90;;;16.80;94.90;;;;;;5003718;28;20402;-72
2022/01/01 12:04:44;;;;;;;4.93;2.60;;;16.80;94.90;;;;;;5014426;28;20025;-73
2022/01/01 12:07:15;;;;;;;5.53;2.47;;;16.90;94.90;;;;;;4994476;28;20025;-75
2022/01/01 12:12:44;;;;;;;2.47;2.00;;;16.90;94.50;;;;;;5012821;28;20038;-71
2022/01/01 12:15:24;;;;;;;5.22;2.70;;;17.00;94.60;;;;;;5011115;28;20471;-71
2022/01/01 12:17:55;;;;;;;7.03;2.20;;;17.00;94.60;;;;;;5010975;28;20033;-70
2022/01/01 12:20:37;;;;;;;;;;;17.00;94.60;;;;;;5008965;28;20088;-71
2022/01/01 12:23:09;;;;;;;2.70;2.20;;;17.00;94.30;;;;;;5012546;28;19913;-71
2022/01/01 12:25:36;;;;;;;5.70;1.98;;;16.90;94.80;;;;;;5013776;28;20109;-69
2022/01/01 12:28:05;;;;;;;3.97;2.28;;;16.80;94.80;;;;;;5007916;28;20483;-68
2022/01/01 12:30:40;;;;;;;4.88;2.47;;;16.80;94.80;;;;;;5008901;28;20025;-73
2022/01/01 12:33:07;;;;;;;3.05;1.90;;;16.90;94.80;;;;;;5013087;28;20033;-71
2022/01/01 12:35:52;;;;;;;4.07;2.20;;;16.90;94.70;;;;;;5013772;28;20030;-71
2022/01/01 12:38:29;;;;;;;5.63;2.47;;;16.90;94.60;;;;;;5010034;28;20045;-72
2022/01/01 12:41:08;;;;;;;5.15;2.17;;;16.90;94.70;;;;;;5012226;28;20033;-70
2022/01/01 12:44:13;;;;;;;9.13;2.65;;;16.90;94.70;;;;;;5012574;28;20030;-68
2022/01/01 12:46:47;;;;;;;6.75;2.45;;;16.90;94.40;;;;;;5005659;28;20042;-69